Aviation Digital Data Service (ADDS)

Output produced by TAFs form (1247 UTC 21 December 2014)
found at http://aviationweather.gov/adds/tafs/
 
KMAF 211126Z 2112/2212 21008KT 1SM BR OVC002 
     TEMPO 2112/2115 1/4SM FG VV002 
     FM211600 22009KT P6SM SCT020 
     FM211900 25012G18KT P6SM SCT250 
     FM220000 24010KT P6SM SCT250